createdAt,value
2022-10-30T00:01:30.199Z,15.00
2022-10-30T00:04:32.369Z,15.47
2022-10-30T00:07:34.256Z,16.04
2022-10-30T00:10:36.037Z,15.39
2022-10-30T00:13:37.839Z,15.77
2022-10-30T00:16:39.627Z,15.82
2022-10-30T00:19:41.424Z,15.22
2022-10-30T00:22:43.282Z,15.47
2022-10-30T00:25:45.068Z,14.71
2022-10-30T00:28:50.701Z,15.58
2022-10-30T00:31:52.788Z,15.85
2022-10-30T00:34:54.609Z,15.93
2022-10-30T00:37:56.670Z,14.68
2022-10-30T00:40:58.779Z,15.83
2022-10-30T00:44:00.585Z,16.17
2022-10-30T00:47:06.236Z,15.93
2022-10-30T00:50:07.983Z,15.05
2022-10-30T00:53:13.741Z,15.79
2022-10-30T00:56:16.419Z,14.93
2022-10-30T00:59:19.847Z,14.66
2022-10-30T01:02:21.793Z,14.65
2022-10-30T01:05:23.867Z,14.33
2022-10-30T01:08:25.757Z,15.26
2022-10-30T01:11:27.695Z,15.67
2022-10-30T01:14:29.529Z,14.94
2022-10-30T01:17:41.542Z,14.54
2022-10-30T01:20:58.691Z,15.46
2022-10-30T01:24:03.555Z,15.89
2022-10-30T01:27:24.242Z,14.16
2022-10-30T01:30:25.988Z,15.22
2022-10-30T01:33:46.736Z,15.20
2022-10-30T01:36:59.879Z,15.45
2022-10-30T01:40:21.232Z,14.86
2022-10-30T01:43:23.051Z,15.91
2022-10-30T01:46:40.314Z,15.46
2022-10-30T01:50:08.444Z,15.32
2022-10-30T01:53:25.945Z,14.77
2022-10-30T01:56:36.900Z,15.48
2022-10-30T01:59:43.371Z,14.51
2022-10-30T02:02:45.258Z,15.14
2022-10-30T02:05:50.829Z,14.94
2022-10-30T02:08:55.165Z,14.89
2022-10-30T02:11:56.943Z,14.81
2022-10-30T02:14:59.221Z,15.21
2022-10-30T02:18:01.433Z,15.50
2022-10-30T02:21:03.565Z,15.65
2022-10-30T02:24:05.556Z,15.59
2022-10-30T02:27:07.349Z,15.80
2022-10-30T02:30:09.593Z,14.97
2022-10-30T02:33:11.453Z,14.43
2022-10-30T02:36:15.606Z,15.11
2022-10-30T02:39:18.057Z,15.22
2022-10-30T02:42:19.878Z,14.35
2022-10-30T02:45:21.709Z,14.57
2022-10-30T02:48:23.519Z,14.23
2022-10-30T02:51:25.303Z,14.70
2022-10-30T02:54:27.133Z,14.32
2022-10-30T02:57:28.957Z,13.88
2022-10-30T03:00:30.730Z,15.05
2022-10-30T03:03:32.519Z,14.72
2022-10-30T03:06:34.304Z,14.77
2022-10-30T03:09:36.090Z,14.46
2022-10-30T03:12:37.889Z,14.51
2022-10-30T03:15:39.668Z,14.58
2022-10-30T03:18:41.707Z,15.18
2022-10-30T03:21:43.509Z,15.13
2022-10-30T03:24:45.322Z,14.59
2022-10-30T03:27:47.097Z,14.89
2022-10-30T03:30:49.268Z,15.09
2022-10-30T03:33:51.065Z,13.94
2022-10-30T03:36:53.359Z,15.03
2022-10-30T03:39:55.175Z,15.00
2022-10-30T03:42:57.234Z,14.75
2022-10-30T03:45:59.284Z,14.98
2022-10-30T03:49:01.079Z,14.50
2022-10-30T03:52:02.919Z,14.47
2022-10-30T03:55:04.902Z,14.84
2022-10-30T03:58:06.871Z,13.64
2022-10-30T04:01:09.939Z,14.23
2022-10-30T04:04:11.792Z,14.88
2022-10-30T04:07:13.610Z,13.96
2022-10-30T04:10:20.868Z,13.34
2022-10-30T04:13:25.540Z,13.70
2022-10-30T04:16:27.348Z,14.12
2022-10-30T04:19:29.152Z,14.26
2022-10-30T04:22:30.926Z,14.69
2022-10-30T04:25:33.648Z,14.24
2022-10-30T04:28:35.407Z,14.12
2022-10-30T04:31:37.272Z,13.56
2022-10-30T04:34:39.578Z,14.08
2022-10-30T04:37:41.562Z,14.01
2022-10-30T04:40:43.593Z,13.54
2022-10-30T04:43:45.416Z,14.02
2022-10-30T04:46:47.198Z,14.05
2022-10-30T04:49:49.008Z,13.91
2022-10-30T04:52:58.222Z,13.60
2022-10-30T04:56:00.009Z,13.91
2022-10-30T04:59:01.903Z,14.04
2022-10-30T05:02:03.810Z,14.43
2022-10-30T05:05:05.739Z,14.79
2022-10-30T05:08:08.310Z,14.33
2022-10-30T05:11:10.169Z,14.56
2022-10-30T05:14:11.941Z,14.65
2022-10-30T05:17:13.743Z,14.86
2022-10-30T05:20:18.799Z,14.12
2022-10-30T05:23:20.970Z,14.59
2022-10-30T05:26:22.777Z,14.39
2022-10-30T05:29:25.841Z,14.17
2022-10-30T05:32:27.656Z,13.80
2022-10-30T05:35:29.536Z,13.64
2022-10-30T05:38:31.632Z,14.00
2022-10-30T05:41:33.432Z,14.01
2022-10-30T05:44:59.139Z,13.78
2022-10-30T05:47:57.994Z,13.96
2022-10-30T05:51:00.446Z,14.90
2022-10-30T05:54:02.244Z,15.15
2022-10-30T05:57:04.063Z,14.44
2022-10-30T06:00:06.218Z,14.91
2022-10-30T06:03:09.985Z,14.95
2022-10-30T06:06:11.832Z,14.81
2022-10-30T06:09:13.617Z,14.57
2022-10-30T06:12:15.445Z,14.43
2022-10-30T06:15:17.254Z,14.65
2022-10-30T06:18:19.078Z,15.59
2022-10-30T06:21:20.896Z,15.07
2022-10-30T06:24:22.695Z,15.69
2022-10-30T06:27:24.482Z,15.70
2022-10-30T06:30:26.757Z,15.79
2022-10-30T06:33:28.562Z,15.07
2022-10-30T06:36:30.387Z,13.93
2022-10-30T06:39:32.212Z,13.83
2022-10-30T06:42:34.036Z,14.39
2022-10-30T06:45:35.869Z,15.56
2022-10-30T06:48:37.684Z,14.91
2022-10-30T06:51:39.492Z,15.01
2022-10-30T06:54:41.332Z,15.69
2022-10-30T06:57:43.122Z,14.92
2022-10-30T07:00:44.996Z,14.94
2022-10-30T07:03:46.894Z,14.89
2022-10-30T07:06:48.701Z,14.99
2022-10-30T07:09:50.515Z,14.67
2022-10-30T07:12:53.012Z,14.49
2022-10-30T07:15:54.824Z,15.20
2022-10-30T07:18:59.388Z,15.37
2022-10-30T07:22:04.031Z,15.15
2022-10-30T07:25:05.899Z,14.87
2022-10-30T07:28:07.699Z,15.11
2022-10-30T07:31:09.535Z,15.28
2022-10-30T07:34:11.330Z,15.67
2022-10-30T07:37:13.144Z,16.18
2022-10-30T07:40:14.968Z,16.36
2022-10-30T07:43:16.769Z,15.26
2022-10-30T07:46:18.555Z,15.57
2022-10-30T07:49:20.347Z,15.69
2022-10-30T07:52:22.158Z,14.84
2022-10-30T07:55:24.075Z,16.03
2022-10-30T07:58:25.879Z,16.33
2022-10-30T08:01:27.763Z,16.22
2022-10-30T08:04:29.664Z,15.48
2022-10-30T08:07:31.944Z,14.50
2022-10-30T08:10:33.861Z,14.19
2022-10-30T08:13:35.656Z,15.00
2022-10-30T08:16:37.500Z,16.29
2022-10-30T08:19:39.277Z,16.02
2022-10-30T08:22:59.478Z,16.01
2022-10-30T08:26:01.459Z,15.67
2022-10-30T08:29:03.475Z,15.17
2022-10-30T08:32:05.583Z,14.89
2022-10-30T08:35:07.544Z,16.13
2022-10-30T08:38:09.408Z,16.67
2022-10-30T08:41:11.267Z,16.51
2022-10-30T08:44:13.072Z,16.77
2022-10-30T08:47:14.889Z,16.60
2022-10-30T08:50:16.741Z,15.83
2022-10-30T08:53:20.445Z,16.52
2022-10-30T08:56:22.252Z,15.49
2022-10-30T08:59:24.058Z,15.65
2022-10-30T09:02:25.910Z,15.21
2022-10-30T09:05:27.767Z,15.73
2022-10-30T09:08:29.557Z,15.93
2022-10-30T09:11:31.361Z,16.81
2022-10-30T09:14:33.243Z,16.60
2022-10-30T09:17:35.028Z,16.31
2022-10-30T09:20:36.867Z,16.38
2022-10-30T09:23:38.710Z,17.03
2022-10-30T09:26:40.507Z,16.70
2022-10-30T09:29:42.381Z,15.88
2022-10-30T09:32:44.225Z,15.65
2022-10-30T09:35:46.066Z,17.00
2022-10-30T09:38:47.918Z,17.46
2022-10-30T09:42:03.457Z,16.39
2022-10-30T09:45:29.999Z,16.34
2022-10-30T09:48:32.600Z,16.67
2022-10-30T09:51:40.545Z,17.69
2022-10-30T09:54:51.156Z,18.10
2022-10-30T09:57:52.947Z,16.63
2022-10-30T10:01:00.728Z,16.34
2022-10-30T10:04:07.620Z,17.51
2022-10-30T10:07:20.309Z,16.88
2022-10-30T10:10:34.318Z,16.90
2022-10-30T10:13:38.496Z,17.79
2022-10-30T10:16:40.786Z,17.98
2022-10-30T10:19:44.869Z,17.07
2022-10-30T10:22:50.237Z,16.91
2022-10-30T10:25:55.447Z,17.28
2022-10-30T10:29:10.696Z,16.67
2022-10-30T10:32:28.263Z,17.67
2022-10-30T10:35:29.999Z,16.53
2022-10-30T10:38:50.195Z,16.56
2022-10-30T10:41:53.642Z,17.78
2022-10-30T10:44:58.807Z,18.20
2022-10-30T10:48:18.032Z,18.20
2022-10-30T10:51:20.779Z,18.53
2022-10-30T10:54:33.008Z,18.44
2022-10-30T10:57:35.896Z,18.48
2022-10-30T11:00:37.715Z,18.30
2022-10-30T11:03:47.875Z,18.15
2022-10-30T11:06:50.597Z,15.92
2022-10-30T11:09:54.428Z,16.53
2022-10-30T11:12:56.536Z,17.67
2022-10-30T11:16:17.434Z,18.06
2022-10-30T11:19:19.299Z,17.42
2022-10-30T11:22:28.748Z,16.73
2022-10-30T11:25:34.309Z,17.65
2022-10-30T11:28:38.578Z,17.14
2022-10-30T11:31:41.409Z,17.67
2022-10-30T11:34:43.204Z,17.69
2022-10-30T11:37:45.778Z,18.50
2022-10-30T11:40:48.312Z,18.88
2022-10-30T11:43:50.153Z,18.04
2022-10-30T11:46:51.976Z,17.60
2022-10-30T11:49:54.196Z,18.20
2022-10-30T11:52:56.696Z,18.46
2022-10-30T11:55:58.484Z,17.82
2022-10-30T11:59:01.233Z,18.09
2022-10-30T12:02:04.293Z,17.75
2022-10-30T12:05:23.462Z,17.23
2022-10-30T12:08:25.325Z,19.08
2022-10-30T12:11:31.018Z,18.43
2022-10-30T12:14:34.438Z,18.12
2022-10-30T12:17:37.627Z,18.17
2022-10-30T12:20:39.479Z,18.71
2022-10-30T12:23:41.314Z,18.08
2022-10-30T12:26:45.673Z,18.90
2022-10-30T12:30:08.067Z,18.03
2022-10-30T12:33:18.335Z,19.10
2022-10-30T12:36:20.595Z,18.99
2022-10-30T12:39:35.621Z,17.05
2022-10-30T12:42:38.138Z,17.70
2022-10-30T12:45:44.263Z,17.29
2022-10-30T12:48:53.402Z,18.32
2022-10-30T12:52:06.363Z,19.25
2022-10-30T12:55:14.332Z,18.88
2022-10-30T12:58:16.104Z,18.05
2022-10-30T13:01:24.592Z,17.35
2022-10-30T13:04:31.351Z,17.17
2022-10-30T13:07:38.774Z,16.99
2022-10-30T13:10:42.573Z,17.30
2022-10-30T13:13:46.174Z,17.54
2022-10-30T13:16:47.996Z,17.84
2022-10-30T13:19:51.071Z,17.91
2022-10-30T13:23:04.240Z,19.15
2022-10-30T13:26:18.222Z,19.15
2022-10-30T13:29:19.994Z,18.86
2022-10-30T13:32:37.436Z,18.35
2022-10-30T13:36:08.731Z,18.23
2022-10-30T13:39:19.302Z,17.13
2022-10-30T13:42:36.110Z,17.47
2022-10-30T13:45:56.785Z,17.75
2022-10-30T13:48:58.815Z,17.83
2022-10-30T13:52:00.543Z,17.71
2022-10-30T13:55:18.000Z,18.24
2022-10-30T13:58:19.845Z,18.72
2022-10-30T14:01:21.717Z,16.89
2022-10-30T14:04:32.330Z,18.06
2022-10-30T14:07:34.073Z,18.84
2022-10-30T14:10:48.782Z,18.78
2022-10-30T14:13:57.153Z,17.97
2022-10-30T14:17:11.193Z,18.28
2022-10-30T14:20:14.524Z,17.58
2022-10-30T14:23:16.479Z,17.23
2022-10-30T14:26:19.663Z,17.65
2022-10-30T14:29:34.050Z,17.52
2022-10-30T14:32:41.125Z,17.72
2022-10-30T14:35:43.028Z,17.17
2022-10-30T14:38:52.176Z,17.50
2022-10-30T14:42:26.423Z,18.10
2022-10-30T14:45:51.664Z,18.49
2022-10-30T14:48:57.892Z,16.98
2022-10-30T14:52:14.554Z,18.06
2022-10-30T14:55:23.453Z,17.32
2022-10-30T14:58:26.174Z,17.17
2022-10-30T15:01:33.200Z,17.02
2022-10-30T15:04:38.154Z,17.24
2022-10-30T15:07:44.930Z,17.27
2022-10-30T15:11:11.848Z,16.91
2022-10-30T15:14:48.539Z,17.70
2022-10-30T15:17:55.836Z,17.74
2022-10-30T15:20:58.336Z,17.52
2022-10-30T15:24:01.127Z,17.45
2022-10-30T15:27:03.125Z,17.41
2022-10-30T15:30:05.177Z,17.35
2022-10-30T15:33:17.920Z,17.09
2022-10-30T15:36:30.434Z,15.41
2022-10-30T15:39:32.206Z,16.49
2022-10-30T15:42:34.227Z,16.70
2022-10-30T15:45:36.736Z,16.62
2022-10-30T15:48:39.748Z,16.65
2022-10-30T15:51:43.369Z,17.18
2022-10-30T15:54:45.752Z,16.97
2022-10-30T15:58:04.824Z,16.87
2022-10-30T16:01:06.961Z,16.92
2022-10-30T16:04:15.273Z,16.84
2022-10-30T16:07:22.149Z,16.94
2022-10-30T16:10:24.787Z,16.82
2022-10-30T16:13:28.400Z,17.61
2022-10-30T16:16:30.642Z,17.69
2022-10-30T16:19:35.998Z,17.27
2022-10-30T16:22:38.266Z,17.56
2022-10-30T16:25:45.881Z,17.42
2022-10-30T16:28:48.948Z,17.65
2022-10-30T16:31:50.816Z,17.28
2022-10-30T16:34:58.996Z,16.77
2022-10-30T16:38:02.661Z,17.20
2022-10-30T16:41:05.364Z,17.49
2022-10-30T16:44:13.893Z,17.48
2022-10-30T16:47:18.639Z,16.70
2022-10-30T16:50:20.595Z,17.62
2022-10-30T16:53:23.227Z,17.39
2022-10-30T16:56:26.467Z,17.36
2022-10-30T16:59:35.809Z,17.44
2022-10-30T17:02:37.662Z,17.30
2022-10-30T17:05:40.461Z,16.69
2022-10-30T17:08:43.083Z,16.89
2022-10-30T17:11:45.540Z,16.81
2022-10-30T17:14:48.664Z,17.43
2022-10-30T17:18:08.470Z,16.83
2022-10-30T17:21:14.132Z,16.41
2022-10-30T17:24:18.181Z,16.70
2022-10-30T17:27:26.051Z,16.06
2022-10-30T17:30:28.534Z,16.65
2022-10-30T17:33:30.330Z,17.05
2022-10-30T17:36:32.143Z,17.06
2022-10-30T17:39:33.960Z,17.38
2022-10-30T17:42:35.736Z,17.22
2022-10-30T17:45:37.547Z,16.89
2022-10-30T17:48:41.502Z,17.44
2022-10-30T17:51:43.326Z,17.31
2022-10-30T17:54:45.204Z,17.26
2022-10-30T17:57:47.014Z,16.47
2022-10-30T18:00:48.864Z,16.34
2022-10-30T18:03:51.294Z,17.23
2022-10-30T18:06:53.085Z,17.48
2022-10-30T18:09:54.885Z,16.12
2022-10-30T18:12:57.121Z,16.67
2022-10-30T18:15:59.251Z,16.19
2022-10-30T18:19:01.073Z,16.88
2022-10-30T18:22:02.997Z,16.51
2022-10-30T18:25:10.483Z,17.35
2022-10-30T18:28:12.323Z,16.96
2022-10-30T18:31:14.996Z,15.94
2022-10-30T18:34:18.226Z,15.98
2022-10-30T18:37:20.064Z,15.92
2022-10-30T18:40:22.755Z,16.39
2022-10-30T18:43:24.739Z,16.19
2022-10-30T18:46:26.673Z,16.46
2022-10-30T18:49:31.877Z,16.34
2022-10-30T18:52:33.676Z,16.33
2022-10-30T18:55:36.728Z,16.77
2022-10-30T18:58:38.595Z,16.52
2022-10-30T19:01:40.571Z,16.87
2022-10-30T19:04:42.501Z,16.49
2022-10-30T19:07:44.332Z,16.95
2022-10-30T19:10:46.767Z,16.78
2022-10-30T19:13:48.696Z,15.56
2022-10-30T19:16:50.483Z,16.66
2022-10-30T19:19:52.298Z,16.75
2022-10-30T19:22:54.088Z,16.52
2022-10-30T19:25:56.045Z,16.69
2022-10-30T19:28:57.861Z,15.90
2022-10-30T19:31:59.677Z,15.91
2022-10-30T19:35:01.493Z,16.90
2022-10-30T19:38:07.907Z,16.40
2022-10-30T19:41:09.735Z,16.21
2022-10-30T19:44:11.612Z,16.23
2022-10-30T19:47:13.472Z,16.21
2022-10-30T19:50:21.178Z,15.47
2022-10-30T19:53:23.000Z,15.90
2022-10-30T19:56:24.813Z,16.20
2022-10-30T19:59:26.626Z,16.87
2022-10-30T20:02:28.453Z,16.56
2022-10-30T20:05:31.065Z,15.95
2022-10-30T20:08:32.961Z,16.09
2022-10-30T20:11:34.765Z,16.35
2022-10-30T20:14:36.715Z,15.50
2022-10-30T20:17:38.525Z,16.33
2022-10-30T20:20:40.839Z,15.64
2022-10-30T20:23:42.698Z,15.99
2022-10-30T20:26:44.483Z,15.53
2022-10-30T20:29:46.293Z,15.38
2022-10-30T20:32:48.521Z,15.61
2022-10-30T20:35:50.388Z,16.10
2022-10-30T20:38:52.188Z,15.76
2022-10-30T20:41:53.961Z,16.21
2022-10-30T20:44:55.769Z,16.36
2022-10-30T20:47:57.915Z,16.68
2022-10-30T20:51:00.538Z,17.00
2022-10-30T20:54:02.354Z,16.65
2022-10-30T20:57:04.188Z,16.07
2022-10-30T21:00:06.853Z,15.17
2022-10-30T21:03:08.901Z,16.45
2022-10-30T21:06:10.741Z,14.79
2022-10-30T21:09:12.550Z,15.75
2022-10-30T21:12:14.347Z,15.62
2022-10-30T21:15:16.156Z,15.04
2022-10-30T21:18:18.028Z,16.16
2022-10-30T21:21:25.193Z,16.43
2022-10-30T21:24:27.549Z,16.50
2022-10-30T21:27:29.498Z,15.90
2022-10-30T21:30:31.295Z,16.00
2022-10-30T21:33:33.534Z,15.54
2022-10-30T21:36:35.312Z,15.35
2022-10-30T21:39:37.164Z,14.41
2022-10-30T21:42:38.978Z,15.66
2022-10-30T21:45:40.777Z,15.63
2022-10-30T21:48:42.610Z,15.96
2022-10-30T21:51:50.497Z,15.34
2022-10-30T21:54:52.309Z,15.50
2022-10-30T21:57:54.974Z,15.49
2022-10-30T22:00:56.833Z,15.30
2022-10-30T22:03:59.306Z,15.29
2022-10-30T22:07:01.117Z,14.66
2022-10-30T22:10:02.961Z,15.02
2022-10-30T22:13:04.780Z,15.74
2022-10-30T22:16:07.846Z,15.96
2022-10-30T22:19:10.253Z,15.66
2022-10-30T22:22:12.063Z,15.49
2022-10-30T22:25:13.863Z,15.16
2022-10-30T22:28:16.038Z,15.04
2022-10-30T22:31:18.284Z,15.06
2022-10-30T22:34:20.079Z,14.97
2022-10-30T22:37:21.946Z,15.36
2022-10-30T22:40:23.719Z,14.53
2022-10-30T22:43:25.529Z,14.96
2022-10-30T22:46:28.352Z,15.16
2022-10-30T22:49:30.185Z,15.84
2022-10-30T22:52:31.960Z,15.80
2022-10-30T22:55:33.758Z,15.27
2022-10-30T22:58:35.547Z,14.67
2022-10-30T23:01:37.772Z,14.23
2022-10-30T23:04:39.649Z,15.54
2022-10-30T23:07:41.457Z,15.55
2022-10-30T23:10:43.417Z,15.31
2022-10-30T23:13:48.289Z,15.11
2022-10-30T23:16:50.068Z,14.58
2022-10-30T23:19:51.913Z,15.25
2022-10-30T23:22:53.688Z,15.24
2022-10-30T23:25:55.627Z,15.33
2022-10-30T23:28:57.871Z,15.69
2022-10-30T23:31:59.703Z,15.79
2022-10-30T23:35:01.505Z,15.31
2022-10-30T23:38:03.734Z,15.28
2022-10-30T23:41:05.515Z,14.71
2022-10-30T23:44:08.481Z,14.94
2022-10-30T23:47:10.376Z,15.42
2022-10-30T23:50:12.189Z,15.40
2022-10-30T23:53:13.961Z,14.72
2022-10-30T23:56:16.084Z,15.38
2022-10-30T23:59:17.851Z,15.42
